sensor_id;sensor_type;location;lat;lon;timestamp;P1;durP1;ratioP1;P2;durP2;ratioP2
62633;SDS011;48704;50.534;6.442;2023-06-10T00:01:20;11.13;;;7.85;;
62633;SDS011;48704;50.534;6.442;2023-06-10T00:03:47;10.38;;;7.80;;
62633;SDS011;48704;50.534;6.442;2023-06-10T00:06:14;9.40;;;7.68;;
62633;SDS011;48704;50.534;6.442;2023-06-10T00:08:39;10.23;;;8.38;;
62633;SDS011;48704;50.534;6.442;2023-06-10T00:11:05;12.18;;;8.73;;
62633;SDS011;48704;50.534;6.442;2023-06-10T00:13:30;11.18;;;8.55;;
62633;SDS011;48704;50.534;6.442;2023-06-10T00:15:55;10.23;;;7.53;;
62633;SDS011;48704;50.534;6.442;2023-06-10T00:18:20;12.27;;;8.50;;
62633;SDS011;48704;50.534;6.442;2023-06-10T00:20:46;9.55;;;8.05;;
62633;SDS011;48704;50.534;6.442;2023-06-10T00:23:14;11.18;;;8.65;;
62633;SDS011;48704;50.534;6.442;2023-06-10T00:25:39;10.68;;;8.80;;
62633;SDS011;48704;50.534;6.442;2023-06-10T00:28:05;10.73;;;8.93;;
62633;SDS011;48704;50.534;6.442;2023-06-10T00:30:30;11.00;;;9.30;;
62633;SDS011;48704;50.534;6.442;2023-06-10T00:32:55;10.35;;;8.38;;
62633;SDS011;48704;50.534;6.442;2023-06-10T00:35:21;9.55;;;8.55;;
62633;SDS011;48704;50.534;6.442;2023-06-10T00:37:46;10.88;;;8.70;;
62633;SDS011;48704;50.534;6.442;2023-06-10T00:40:11;9.45;;;8.02;;
62633;SDS011;48704;50.534;6.442;2023-06-10T00:42:37;9.55;;;8.23;;
62633;SDS011;48704;50.534;6.442;2023-06-10T00:45:02;11.32;;;8.38;;
62633;SDS011;48704;50.534;6.442;2023-06-10T00:47:28;10.35;;;8.57;;
62633;SDS011;48704;50.534;6.442;2023-06-10T00:49:53;10.68;;;8.45;;
62633;SDS011;48704;50.534;6.442;2023-06-10T00:52:19;12.13;;;8.60;;
62633;SDS011;48704;50.534;6.442;2023-06-10T00:54:48;14.65;;;8.52;;
62633;SDS011;48704;50.534;6.442;2023-06-10T00:57:13;10.15;;;8.10;;
62633;SDS011;48704;50.534;6.442;2023-06-10T00:59:39;11.52;;;9.13;;
62633;SDS011;48704;50.534;6.442;2023-06-10T01:02:06;9.73;;;8.73;;
62633;SDS011;48704;50.534;6.442;2023-06-10T01:04:32;10.00;;;8.07;;
62633;SDS011;48704;50.534;6.442;2023-06-10T01:12:45;14.50;;;9.23;;
62633;SDS011;48704;50.534;6.442;2023-06-10T01:17:54;10.95;;;8.40;;
62633;SDS011;48704;50.534;6.442;2023-06-10T01:20:26;11.52;;;8.50;;
62633;SDS011;48704;50.534;6.442;2023-06-10T01:22:56;14.63;;;8.40;;
62633;SDS011;48704;50.534;6.442;2023-06-10T01:25:23;12.63;;;8.75;;
62633;SDS011;48704;50.534;6.442;2023-06-10T01:27:53;11.43;;;9.32;;
62633;SDS011;48704;50.534;6.442;2023-06-10T01:30:27;9.95;;;8.15;;
62633;SDS011;48704;50.534;6.442;2023-06-10T01:32:55;10.25;;;8.15;;
62633;SDS011;48704;50.534;6.442;2023-06-10T01:35:25;10.27;;;8.23;;
62633;SDS011;48704;50.534;6.442;2023-06-10T01:37:54;11.45;;;8.07;;
62633;SDS011;48704;50.534;6.442;2023-06-10T01:40:21;9.55;;;8.30;;
62633;SDS011;48704;50.534;6.442;2023-06-10T01:42:48;11.32;;;8.75;;
62633;SDS011;48704;50.534;6.442;2023-06-10T01:45:14;10.27;;;8.52;;
62633;SDS011;48704;50.534;6.442;2023-06-10T01:47:39;11.50;;;8.43;;
62633;SDS011;48704;50.534;6.442;2023-06-10T01:50:05;11.93;;;8.98;;
62633;SDS011;48704;50.534;6.442;2023-06-10T01:52:30;12.85;;;8.70;;
62633;SDS011;48704;50.534;6.442;2023-06-10T01:54:56;11.65;;;8.82;;
62633;SDS011;48704;50.534;6.442;2023-06-10T01:57:21;10.73;;;9.13;;
62633;SDS011;48704;50.534;6.442;2023-06-10T01:59:46;11.30;;;8.05;;
62633;SDS011;48704;50.534;6.442;2023-06-10T02:02:11;10.95;;;8.40;;
62633;SDS011;48704;50.534;6.442;2023-06-10T02:04:37;10.35;;;8.10;;
62633;SDS011;48704;50.534;6.442;2023-06-10T02:07:02;11.82;;;9.02;;
62633;SDS011;48704;50.534;6.442;2023-06-10T02:09:29;11.32;;;8.48;;
62633;SDS011;48704;50.534;6.442;2023-06-10T02:11:55;12.85;;;9.30;;
62633;SDS011;48704;50.534;6.442;2023-06-10T02:14:20;10.77;;;8.50;;
62633;SDS011;48704;50.534;6.442;2023-06-10T02:16:45;11.90;;;8.70;;
62633;SDS011;48704;50.534;6.442;2023-06-10T02:19:11;13.85;;;9.05;;
62633;SDS011;48704;50.534;6.442;2023-06-10T02:21:37;11.38;;;8.38;;
62633;SDS011;48704;50.534;6.442;2023-06-10T02:24:02;10.45;;;7.63;;
62633;SDS011;48704;50.534;6.442;2023-06-10T02:26:28;9.60;;;7.85;;
62633;SDS011;48704;50.534;6.442;2023-06-10T02:28:53;10.38;;;8.52;;
62633;SDS011;48704;50.534;6.442;2023-06-10T02:31:18;10.65;;;7.93;;
62633;SDS011;48704;50.534;6.442;2023-06-10T02:33:44;12.88;;;7.80;;
62633;SDS011;48704;50.534;6.442;2023-06-10T02:36:10;10.95;;;8.18;;
62633;SDS011;48704;50.534;6.442;2023-06-10T02:38:38;10.45;;;7.75;;
62633;SDS011;48704;50.534;6.442;2023-06-10T02:41:05;10.20;;;8.15;;
62633;SDS011;48704;50.534;6.442;2023-06-10T02:43:30;11.10;;;7.72;;
62633;SDS011;48704;50.534;6.442;2023-06-10T02:45:56;10.00;;;8.15;;
62633;SDS011;48704;50.534;6.442;2023-06-10T02:48:23;13.57;;;8.32;;
62633;SDS011;48704;50.534;6.442;2023-06-10T02:50:49;10.15;;;8.52;;
62633;SDS011;48704;50.534;6.442;2023-06-10T02:53:14;10.50;;;8.13;;
62633;SDS011;48704;50.534;6.442;2023-06-10T02:55:39;8.88;;;7.50;;
62633;SDS011;48704;50.534;6.442;2023-06-10T02:58:05;11.70;;;8.07;;
62633;SDS011;48704;50.534;6.442;2023-06-10T03:00:31;10.23;;;7.88;;
62633;SDS011;48704;50.534;6.442;2023-06-10T03:02:57;10.65;;;7.68;;
62633;SDS011;48704;50.534;6.442;2023-06-10T03:05:23;9.80;;;7.50;;
62633;SDS011;48704;50.534;6.442;2023-06-10T03:07:48;9.75;;;7.75;;
62633;SDS011;48704;50.534;6.442;2023-06-10T03:10:13;8.95;;;7.40;;
62633;SDS011;48704;50.534;6.442;2023-06-10T03:12:39;9.50;;;7.80;;
62633;SDS011;48704;50.534;6.442;2023-06-10T03:15:05;10.40;;;7.68;;
62633;SDS011;48704;50.534;6.442;2023-06-10T03:17:31;10.63;;;7.57;;
62633;SDS011;48704;50.534;6.442;2023-06-10T03:19:57;10.65;;;7.32;;
62633;SDS011;48704;50.534;6.442;2023-06-10T03:22:22;9.55;;;7.50;;
62633;SDS011;48704;50.534;6.442;2023-06-10T03:24:47;11.57;;;7.95;;
62633;SDS011;48704;50.534;6.442;2023-06-10T03:27:15;10.20;;;7.43;;
62633;SDS011;48704;50.534;6.442;2023-06-10T03:29:41;10.90;;;7.38;;
62633;SDS011;48704;50.534;6.442;2023-06-10T03:32:06;11.93;;;8.18;;
62633;SDS011;48704;50.534;6.442;2023-06-10T03:34:32;9.02;;;7.05;;
62633;SDS011;48704;50.534;6.442;2023-06-10T03:36:58;11.00;;;7.50;;
62633;SDS011;48704;50.534;6.442;2023-06-10T03:39:25;11.00;;;7.80;;
62633;SDS011;48704;50.534;6.442;2023-06-10T03:41:54;9.50;;;6.97;;
62633;SDS011;48704;50.534;6.442;2023-06-10T03:44:19;12.80;;;8.05;;
62633;SDS011;48704;50.534;6.442;2023-06-10T03:46:45;9.68;;;7.97;;
62633;SDS011;48704;50.534;6.442;2023-06-10T03:49:10;9.68;;;7.43;;
62633;SDS011;48704;50.534;6.442;2023-06-10T03:51:36;9.38;;;7.35;;
62633;SDS011;48704;50.534;6.442;2023-06-10T03:54:02;9.80;;;7.40;;
62633;SDS011;48704;50.534;6.442;2023-06-10T03:56:27;9.35;;;7.55;;
62633;SDS011;48704;50.534;6.442;2023-06-10T03:58:53;9.18;;;7.70;;
62633;SDS011;48704;50.534;6.442;2023-06-10T04:01:19;12.15;;;7.60;;
62633;SDS011;48704;50.534;6.442;2023-06-10T04:03:45;10.23;;;7.57;;
62633;SDS011;48704;50.534;6.442;2023-06-10T04:06:13;9.15;;;7.47;;
62633;SDS011;48704;50.534;6.442;2023-06-10T04:08:38;9.88;;;7.90;;
62633;SDS011;48704;50.534;6.442;2023-06-10T04:11:04;10.65;;;7.70;;
62633;SDS011;48704;50.534;6.442;2023-06-10T04:13:29;9.20;;;7.35;;
62633;SDS011;48704;50.534;6.442;2023-06-10T04:15:54;9.73;;;7.85;;
62633;SDS011;48704;50.534;6.442;2023-06-10T04:18:19;11.95;;;7.68;;
62633;SDS011;48704;50.534;6.442;2023-06-10T04:20:45;8.63;;;7.47;;
62633;SDS011;48704;50.534;6.442;2023-06-10T04:23:11;9.00;;;6.55;;
62633;SDS011;48704;50.534;6.442;2023-06-10T04:25:36;10.27;;;7.55;;
62633;SDS011;48704;50.534;6.442;2023-06-10T04:28:01;9.30;;;7.15;;
62633;SDS011;48704;50.534;6.442;2023-06-10T04:30:27;12.60;;;7.20;;
62633;SDS011;48704;50.534;6.442;2023-06-10T04:32:52;12.95;;;7.57;;
62633;SDS011;48704;50.534;6.442;2023-06-10T04:35:17;9.65;;;7.10;;
62633;SDS011;48704;50.534;6.442;2023-06-10T04:37:43;10.73;;;7.55;;
62633;SDS011;48704;50.534;6.442;2023-06-10T04:40:08;11.52;;;8.00;;
62633;SDS011;48704;50.534;6.442;2023-06-10T04:42:34;10.02;;;7.68;;
62633;SDS011;48704;50.534;6.442;2023-06-10T04:44:59;13.40;;;9.32;;
62633;SDS011;48704;50.534;6.442;2023-06-10T04:47:25;12.23;;;8.82;;
62633;SDS011;48704;50.534;6.442;2023-06-10T04:49:51;11.73;;;8.10;;
62633;SDS011;48704;50.534;6.442;2023-06-10T04:52:17;11.70;;;8.50;;
62633;SDS011;48704;50.534;6.442;2023-06-10T04:54:42;13.48;;;8.20;;
62633;SDS011;48704;50.534;6.442;2023-06-10T04:57:08;10.73;;;7.78;;
62633;SDS011;48704;50.534;6.442;2023-06-10T04:59:33;14.77;;;8.45;;
62633;SDS011;48704;50.534;6.442;2023-06-10T05:02:02;12.88;;;8.25;;
62633;SDS011;48704;50.534;6.442;2023-06-10T05:04:28;13.70;;;8.60;;
62633;SDS011;48704;50.534;6.442;2023-06-10T05:06:54;14.32;;;9.07;;
62633;SDS011;48704;50.534;6.442;2023-06-10T05:09:19;12.40;;;8.98;;
62633;SDS011;48704;50.534;6.442;2023-06-10T05:11:45;10.55;;;8.60;;
62633;SDS011;48704;50.534;6.442;2023-06-10T05:14:11;11.40;;;9.00;;
62633;SDS011;48704;50.534;6.442;2023-06-10T05:16:36;10.93;;;8.88;;
62633;SDS011;48704;50.534;6.442;2023-06-10T05:19:02;14.50;;;8.85;;
62633;SDS011;48704;50.534;6.442;2023-06-10T05:21:28;8.95;;;8.02;;
62633;SDS011;48704;50.534;6.442;2023-06-10T05:23:53;12.95;;;8.02;;
62633;SDS011;48704;50.534;6.442;2023-06-10T05:26:18;10.07;;;7.22;;
62633;SDS011;48704;50.534;6.442;2023-06-10T05:28:44;11.82;;;7.90;;
62633;SDS011;48704;50.534;6.442;2023-06-10T05:31:09;11.25;;;7.88;;
62633;SDS011;48704;50.534;6.442;2023-06-10T05:33:34;11.18;;;8.10;;
62633;SDS011;48704;50.534;6.442;2023-06-10T05:36:00;8.63;;;7.32;;
62633;SDS011;48704;50.534;6.442;2023-06-10T05:38:25;10.75;;;7.97;;
62633;SDS011;48704;50.534;6.442;2023-06-10T05:40:50;11.07;;;7.70;;
62633;SDS011;48704;50.534;6.442;2023-06-10T05:43:15;9.95;;;7.68;;
62633;SDS011;48704;50.534;6.442;2023-06-10T05:45:41;12.98;;;7.63;;
62633;SDS011;48704;50.534;6.442;2023-06-10T05:48:07;14.35;;;7.50;;
62633;SDS011;48704;50.534;6.442;2023-06-10T05:50:33;8.70;;;7.47;;
62633;SDS011;48704;50.534;6.442;2023-06-10T05:53:03;10.38;;;7.60;;
62633;SDS011;48704;50.534;6.442;2023-06-10T05:55:28;11.35;;;7.70;;
62633;SDS011;48704;50.534;6.442;2023-06-10T05:57:59;9.75;;;7.45;;
62633;SDS011;48704;50.534;6.442;2023-06-10T06:00:25;9.32;;;7.05;;
62633;SDS011;48704;50.534;6.442;2023-06-10T06:02:51;12.07;;;7.43;;
62633;SDS011;48704;50.534;6.442;2023-06-10T06:05:17;10.32;;;7.30;;
62633;SDS011;48704;50.534;6.442;2023-06-10T06:07:43;10.55;;;7.60;;
62633;SDS011;48704;50.534;6.442;2023-06-10T06:10:08;12.02;;;7.95;;
62633;SDS011;48704;50.534;6.442;2023-06-10T06:12:33;8.27;;;6.95;;
62633;SDS011;48704;50.534;6.442;2023-06-10T06:14:59;10.68;;;6.63;;
62633;SDS011;48704;50.534;6.442;2023-06-10T06:17:24;8.65;;;6.68;;
62633;SDS011;48704;50.534;6.442;2023-06-10T06:19:49;10.20;;;7.47;;
62633;SDS011;48704;50.534;6.442;2023-06-10T06:22:15;10.95;;;7.60;;
62633;SDS011;48704;50.534;6.442;2023-06-10T06:24:40;9.88;;;7.03;;
62633;SDS011;48704;50.534;6.442;2023-06-10T06:27:05;8.57;;;7.10;;
62633;SDS011;48704;50.534;6.442;2023-06-10T06:29:31;9.77;;;6.72;;
62633;SDS011;48704;50.534;6.442;2023-06-10T06:31:56;12.18;;;6.97;;
62633;SDS011;48704;50.534;6.442;2023-06-10T06:34:21;10.32;;;6.63;;
62633;SDS011;48704;50.534;6.442;2023-06-10T06:36:47;11.38;;;7.35;;
62633;SDS011;48704;50.534;6.442;2023-06-10T06:39:12;8.80;;;6.20;;
62633;SDS011;48704;50.534;6.442;2023-06-10T06:41:37;11.32;;;7.10;;
62633;SDS011;48704;50.534;6.442;2023-06-10T06:44:03;10.00;;;6.95;;
62633;SDS011;48704;50.534;6.442;2023-06-10T06:46:29;10.65;;;7.63;;
62633;SDS011;48704;50.534;6.442;2023-06-10T06:48:54;8.52;;;6.82;;
62633;SDS011;48704;50.534;6.442;2023-06-10T06:51:19;10.48;;;7.38;;
62633;SDS011;48704;50.534;6.442;2023-06-10T06:53:45;8.55;;;7.38;;
62633;SDS011;48704;50.534;6.442;2023-06-10T06:56:11;9.80;;;7.00;;
62633;SDS011;48704;50.534;6.442;2023-06-10T06:58:36;7.40;;;6.40;;
62633;SDS011;48704;50.534;6.442;2023-06-10T07:01:02;9.35;;;7.68;;
62633;SDS011;48704;50.534;6.442;2023-06-10T07:03:27;9.75;;;7.43;;
62633;SDS011;48704;50.534;6.442;2023-06-10T07:05:52;11.18;;;7.38;;
62633;SDS011;48704;50.534;6.442;2023-06-10T07:08:18;7.80;;;6.60;;
62633;SDS011;48704;50.534;6.442;2023-06-10T07:10:43;9.15;;;7.28;;
62633;SDS011;48704;50.534;6.442;2023-06-10T07:13:08;9.77;;;7.13;;
62633;SDS011;48704;50.534;6.442;2023-06-10T07:15:33;8.75;;;6.57;;
62633;SDS011;48704;50.534;6.442;2023-06-10T07:17:59;10.25;;;7.53;;
62633;SDS011;48704;50.534;6.442;2023-06-10T07:20:24;7.97;;;7.05;;
62633;SDS011;48704;50.534;6.442;2023-06-10T07:22:49;9.40;;;7.63;;
62633;SDS011;48704;50.534;6.442;2023-06-10T07:25:15;10.20;;;7.55;;
62633;SDS011;48704;50.534;6.442;2023-06-10T07:27:40;12.55;;;7.35;;
62633;SDS011;48704;50.534;6.442;2023-06-10T07:30:06;9.48;;;6.95;;
62633;SDS011;48704;50.534;6.442;2023-06-10T07:32:33;10.15;;;6.90;;
62633;SDS011;48704;50.534;6.442;2023-06-10T07:34:59;8.25;;;6.60;;
62633;SDS011;48704;50.534;6.442;2023-06-10T07:37:24;12.07;;;7.22;;
62633;SDS011;48704;50.534;6.442;2023-06-10T07:39:49;9.00;;;6.63;;
62633;SDS011;48704;50.534;6.442;2023-06-10T07:42:15;9.98;;;7.03;;
62633;SDS011;48704;50.534;6.442;2023-06-10T07:44:40;9.07;;;7.20;;
62633;SDS011;48704;50.534;6.442;2023-06-10T07:47:06;12.75;;;7.80;;
62633;SDS011;48704;50.534;6.442;2023-06-10T07:49:31;9.38;;;7.03;;
62633;SDS011;48704;50.534;6.442;2023-06-10T07:51:56;9.43;;;7.43;;
62633;SDS011;48704;50.534;6.442;2023-06-10T07:54:22;8.77;;;7.07;;
62633;SDS011;48704;50.534;6.442;2023-06-10T07:56:47;12.57;;;8.20;;
62633;SDS011;48704;50.534;6.442;2023-06-10T07:59:16;11.45;;;7.30;;
62633;SDS011;48704;50.534;6.442;2023-06-10T08:01:41;8.65;;;6.80;;
62633;SDS011;48704;50.534;6.442;2023-06-10T08:04:07;7.72;;;6.70;;
62633;SDS011;48704;50.534;6.442;2023-06-10T08:06:33;9.27;;;7.18;;
62633;SDS011;48704;50.534;6.442;2023-06-10T08:08:58;9.23;;;6.80;;
62633;SDS011;48704;50.534;6.442;2023-06-10T08:11:24;9.10;;;6.63;;
62633;SDS011;48704;50.534;6.442;2023-06-10T08:13:53;10.73;;;7.53;;
62633;SDS011;48704;50.534;6.442;2023-06-10T08:16:18;11.48;;;7.20;;
62633;SDS011;48704;50.534;6.442;2023-06-10T08:18:43;11.00;;;8.00;;
62633;SDS011;48704;50.534;6.442;2023-06-10T08:21:08;9.55;;;6.80;;
62633;SDS011;48704;50.534;6.442;2023-06-10T08:23:34;10.40;;;7.50;;
62633;SDS011;48704;50.534;6.442;2023-06-10T08:25:59;11.93;;;7.50;;
62633;SDS011;48704;50.534;6.442;2023-06-10T08:28:24;9.13;;;7.30;;
62633;SDS011;48704;50.534;6.442;2023-06-10T08:30:49;9.10;;;7.27;;
62633;SDS011;48704;50.534;6.442;2023-06-10T08:33:15;7.90;;;6.80;;
62633;SDS011;48704;50.534;6.442;2023-06-10T08:35:40;11.23;;;7.38;;
62633;SDS011;48704;50.534;6.442;2023-06-10T08:38:05;8.65;;;7.18;;
62633;SDS011;48704;50.534;6.442;2023-06-10T08:40:31;10.20;;;7.13;;
62633;SDS011;48704;50.534;6.442;2023-06-10T08:43:04;8.88;;;6.60;;
62633;SDS011;48704;50.534;6.442;2023-06-10T08:45:32;9.73;;;7.40;;
62633;SDS011;48704;50.534;6.442;2023-06-10T08:48:02;9.00;;;7.70;;
62633;SDS011;48704;50.534;6.442;2023-06-10T08:50:32;10.43;;;7.45;;
62633;SDS011;48704;50.534;6.442;2023-06-10T08:52:59;12.43;;;7.05;;
62633;SDS011;48704;50.534;6.442;2023-06-10T08:55:33;9.50;;;7.15;;
62633;SDS011;48704;50.534;6.442;2023-06-10T08:58:01;9.88;;;7.10;;
62633;SDS011;48704;50.534;6.442;2023-06-10T09:00:27;9.73;;;7.20;;
62633;SDS011;48704;50.534;6.442;2023-06-10T09:02:54;10.10;;;7.82;;
62633;SDS011;48704;50.534;6.442;2023-06-10T09:05:20;9.02;;;7.00;;
62633;SDS011;48704;50.534;6.442;2023-06-10T09:07:45;9.43;;;7.10;;
62633;SDS011;48704;50.534;6.442;2023-06-10T09:10:12;10.45;;;7.45;;
62633;SDS011;48704;50.534;6.442;2023-06-10T09:12:37;8.10;;;6.63;;
62633;SDS011;48704;50.534;6.442;2023-06-10T09:15:03;10.40;;;7.40;;
62633;SDS011;48704;50.534;6.442;2023-06-10T09:17:29;8.60;;;7.03;;
62633;SDS011;48704;50.534;6.442;2023-06-10T09:19:55;10.50;;;7.20;;
62633;SDS011;48704;50.534;6.442;2023-06-10T09:22:22;8.85;;;7.70;;
62633;SDS011;48704;50.534;6.442;2023-06-10T09:24:48;9.02;;;7.85;;
62633;SDS011;48704;50.534;6.442;2023-06-10T09:27:13;11.98;;;8.05;;
62633;SDS011;48704;50.534;6.442;2023-06-10T09:30:12;10.20;;;7.15;;
62633;SDS011;48704;50.534;6.442;2023-06-10T09:32:30;9.30;;;7.00;;
62633;SDS011;48704;50.534;6.442;2023-06-10T09:34:56;11.95;;;6.78;;
62633;SDS011;48704;50.534;6.442;2023-06-10T09:37:24;8.13;;;7.32;;
62633;SDS011;48704;50.534;6.442;2023-06-10T09:40:00;11.77;;;8.00;;
62633;SDS011;48704;50.534;6.442;2023-06-10T09:42:31;9.90;;;7.30;;
62633;SDS011;48704;50.534;6.442;2023-06-10T09:44:58;9.80;;;7.63;;
62633;SDS011;48704;50.534;6.442;2023-06-10T09:47:23;9.48;;;7.40;;
62633;SDS011;48704;50.534;6.442;2023-06-10T09:49:49;9.77;;;7.65;;
62633;SDS011;48704;50.534;6.442;2023-06-10T09:52:21;9.35;;;7.78;;
62633;SDS011;48704;50.534;6.442;2023-06-10T09:54:50;13.32;;;7.78;;
62633;SDS011;48704;50.534;6.442;2023-06-10T09:57:17;8.75;;;7.53;;
62633;SDS011;48704;50.534;6.442;2023-06-10T09:59:42;10.55;;;7.75;;
62633;SDS011;48704;50.534;6.442;2023-06-10T10:02:13;14.35;;;7.60;;
62633;SDS011;48704;50.534;6.442;2023-06-10T10:04:39;10.30;;;7.28;;
62633;SDS011;48704;50.534;6.442;2023-06-10T10:07:05;11.63;;;8.20;;
62633;SDS011;48704;50.534;6.442;2023-06-10T10:09:32;9.15;;;7.72;;
62633;SDS011;48704;50.534;6.442;2023-06-10T10:11:57;10.93;;;8.05;;
62633;SDS011;48704;50.534;6.442;2023-06-10T10:14:25;9.90;;;7.88;;
62633;SDS011;48704;50.534;6.442;2023-06-10T10:16:57;11.13;;;7.65;;
62633;SDS011;48704;50.534;6.442;2023-06-10T10:19:28;10.07;;;7.50;;
62633;SDS011;48704;50.534;6.442;2023-06-10T10:21:58;11.80;;;7.28;;
62633;SDS011;48704;50.534;6.442;2023-06-10T10:24:33;12.35;;;8.02;;
62633;SDS011;48704;50.534;6.442;2023-06-10T10:27:01;9.13;;;7.13;;
62633;SDS011;48704;50.534;6.442;2023-06-10T10:32:01;9.25;;;8.10;;
62633;SDS011;48704;50.534;6.442;2023-06-10T10:37:06;8.45;;;7.28;;
62633;SDS011;48704;50.534;6.442;2023-06-10T10:39:32;8.73;;;7.13;;
62633;SDS011;48704;50.534;6.442;2023-06-10T10:41:59;9.15;;;6.95;;
62633;SDS011;48704;50.534;6.442;2023-06-10T10:44:25;11.23;;;7.43;;
62633;SDS011;48704;50.534;6.442;2023-06-10T10:46:52;8.70;;;6.85;;
62633;SDS011;48704;50.534;6.442;2023-06-10T10:49:19;10.35;;;6.95;;
62633;SDS011;48704;50.534;6.442;2023-06-10T10:51:56;9.20;;;6.72;;
62633;SDS011;48704;50.534;6.442;2023-06-10T10:54:29;9.27;;;6.70;;
62633;SDS011;48704;50.534;6.442;2023-06-10T11:05:07;9.83;;;7.77;;
62633;SDS011;48704;50.534;6.442;2023-06-10T11:07:33;8.32;;;6.43;;
62633;SDS011;48704;50.534;6.442;2023-06-10T11:15:14;7.70;;;6.90;;
62633;SDS011;48704;50.534;6.442;2023-06-10T11:20:52;8.10;;;6.15;;
62633;SDS011;48704;50.534;6.442;2023-06-10T11:23:31;10.25;;;6.65;;
62633;SDS011;48704;50.534;6.442;2023-06-10T11:31:24;8.50;;;6.40;;
62633;SDS011;48704;50.534;6.442;2023-06-10T11:33:55;9.20;;;6.93;;
62633;SDS011;48704;50.534;6.442;2023-06-10T11:36:22;7.10;;;6.20;;
62633;SDS011;48704;50.534;6.442;2023-06-10T11:38:48;7.43;;;5.85;;
62633;SDS011;48704;50.534;6.442;2023-06-10T11:41:13;8.05;;;6.43;;
62633;SDS011;48704;50.534;6.442;2023-06-10T11:43:43;8.38;;;6.00;;
62633;SDS011;48704;50.534;6.442;2023-06-10T11:46:10;9.07;;;6.18;;
62633;SDS011;48704;50.534;6.442;2023-06-10T11:48:36;8.43;;;6.18;;
62633;SDS011;48704;50.534;6.442;2023-06-10T11:51:05;8.38;;;5.65;;
62633;SDS011;48704;50.534;6.442;2023-06-10T11:53:31;7.90;;;6.20;;
62633;SDS011;48704;50.534;6.442;2023-06-10T11:55:56;6.60;;;5.93;;
62633;SDS011;48704;50.534;6.442;2023-06-10T11:58:22;8.10;;;5.65;;
62633;SDS011;48704;50.534;6.442;2023-06-10T12:00:48;7.38;;;5.72;;
62633;SDS011;48704;50.534;6.442;2023-06-10T12:03:15;7.68;;;5.65;;
62633;SDS011;48704;50.534;6.442;2023-06-10T12:05:40;6.85;;;5.95;;
62633;SDS011;48704;50.534;6.442;2023-06-10T12:08:18;11.45;;;6.32;;
62633;SDS011;48704;50.534;6.442;2023-06-10T12:10:43;11.15;;;5.93;;
62633;SDS011;48704;50.534;6.442;2023-06-10T12:13:09;6.53;;;5.72;;
62633;SDS011;48704;50.534;6.442;2023-06-10T12:15:34;7.38;;;6.05;;
62633;SDS011;48704;50.534;6.442;2023-06-10T12:18:00;8.48;;;6.30;;
62633;SDS011;48704;50.534;6.442;2023-06-10T12:20:27;9.25;;;5.93;;
62633;SDS011;48704;50.534;6.442;2023-06-10T12:25:26;11.05;;;6.00;;
62633;SDS011;48704;50.534;6.442;2023-06-10T12:27:52;7.13;;;5.93;;
62633;SDS011;48704;50.534;6.442;2023-06-10T12:30:19;7.80;;;5.93;;
62633;SDS011;48704;50.534;6.442;2023-06-10T12:32:46;7.30;;;6.35;;
62633;SDS011;48704;50.534;6.442;2023-06-10T12:35:13;8.73;;;6.55;;
62633;SDS011;48704;50.534;6.442;2023-06-10T12:37:55;7.15;;;6.25;;
62633;SDS011;48704;50.534;6.442;2023-06-10T12:40:32;9.65;;;5.93;;
62633;SDS011;48704;50.534;6.442;2023-06-10T12:42:58;9.10;;;6.43;;
62633;SDS011;48704;50.534;6.442;2023-06-10T12:45:28;8.23;;;6.20;;
62633;SDS011;48704;50.534;6.442;2023-06-10T12:48:11;8.18;;;6.05;;
62633;SDS011;48704;50.534;6.442;2023-06-10T12:50:38;9.52;;;5.53;;
62633;SDS011;48704;50.534;6.442;2023-06-10T12:53:05;7.32;;;5.38;;
62633;SDS011;48704;50.534;6.442;2023-06-10T12:55:32;10.73;;;6.50;;
62633;SDS011;48704;50.534;6.442;2023-06-10T12:57:58;8.23;;;5.47;;
62633;SDS011;48704;50.534;6.442;2023-06-10T13:00:23;6.32;;;5.65;;
62633;SDS011;48704;50.534;6.442;2023-06-10T13:02:54;7.40;;;5.60;;
62633;SDS011;48704;50.534;6.442;2023-06-10T13:05:20;8.02;;;5.60;;
62633;SDS011;48704;50.534;6.442;2023-06-10T13:07:46;8.23;;;5.47;;
62633;SDS011;48704;50.534;6.442;2023-06-10T13:10:15;6.20;;;5.00;;
62633;SDS011;48704;50.534;6.442;2023-06-10T13:12:41;8.70;;;6.43;;
62633;SDS011;48704;50.534;6.442;2023-06-10T13:15:07;6.68;;;5.55;;
62633;SDS011;48704;50.534;6.442;2023-06-10T13:17:33;7.30;;;5.70;;
62633;SDS011;48704;50.534;6.442;2023-06-10T13:19:59;6.15;;;5.55;;
62633;SDS011;48704;50.534;6.442;2023-06-10T13:22:25;10.40;;;6.93;;
62633;SDS011;48704;50.534;6.442;2023-06-10T13:24:51;9.05;;;4.78;;
62633;SDS011;48704;50.534;6.442;2023-06-10T13:27:17;5.57;;;4.55;;
62633;SDS011;48704;50.534;6.442;2023-06-10T13:29:42;7.20;;;5.28;;
62633;SDS011;48704;50.534;6.442;2023-06-10T13:32:07;8.20;;;5.30;;
62633;SDS011;48704;50.534;6.442;2023-06-10T13:34:33;6.65;;;5.30;;
62633;SDS011;48704;50.534;6.442;2023-06-10T13:36:58;9.40;;;5.60;;
62633;SDS011;48704;50.534;6.442;2023-06-10T13:39:24;6.28;;;5.63;;
62633;SDS011;48704;50.534;6.442;2023-06-10T13:41:49;9.20;;;6.32;;
62633;SDS011;48704;50.534;6.442;2023-06-10T13:44:14;9.77;;;5.85;;
62633;SDS011;48704;50.534;6.442;2023-06-10T13:46:40;6.85;;;5.22;;
62633;SDS011;48704;50.534;6.442;2023-06-10T13:49:05;8.82;;;5.72;;
62633;SDS011;48704;50.534;6.442;2023-06-10T13:51:30;7.97;;;5.22;;
62633;SDS011;48704;50.534;6.442;2023-06-10T13:53:56;5.63;;;5.03;;
62633;SDS011;48704;50.534;6.442;2023-06-10T13:56:22;7.53;;;5.13;;
62633;SDS011;48704;50.534;6.442;2023-06-10T13:58:47;8.38;;;5.75;;
62633;SDS011;48704;50.534;6.442;2023-06-10T14:01:13;6.70;;;5.80;;
62633;SDS011;48704;50.534;6.442;2023-06-10T14:03:38;6.70;;;5.57;;
62633;SDS011;48704;50.534;6.442;2023-06-10T14:06:03;6.63;;;5.60;;
62633;SDS011;48704;50.534;6.442;2023-06-10T14:08:29;5.78;;;5.20;;
62633;SDS011;48704;50.534;6.442;2023-06-10T14:10:54;7.97;;;5.40;;
62633;SDS011;48704;50.534;6.442;2023-06-10T14:13:20;6.68;;;5.25;;
62633;SDS011;48704;50.534;6.442;2023-06-10T14:15:45;8.60;;;5.60;;
62633;SDS011;48704;50.534;6.442;2023-06-10T14:18:11;8.63;;;5.40;;
62633;SDS011;48704;50.534;6.442;2023-06-10T14:20:36;6.35;;;4.80;;
62633;SDS011;48704;50.534;6.442;2023-06-10T14:23:02;7.07;;;4.70;;
62633;SDS011;48704;50.534;6.442;2023-06-10T14:25:27;6.00;;;4.47;;
62633;SDS011;48704;50.534;6.442;2023-06-10T14:27:52;6.75;;;5.03;;
62633;SDS011;48704;50.534;6.442;2023-06-10T14:30:18;7.28;;;5.00;;
62633;SDS011;48704;50.534;6.442;2023-06-10T14:32:43;7.00;;;4.93;;
62633;SDS011;48704;50.534;6.442;2023-06-10T14:35:09;5.55;;;4.50;;
62633;SDS011;48704;50.534;6.442;2023-06-10T14:37:35;8.82;;;5.63;;
62633;SDS011;48704;50.534;6.442;2023-06-10T14:40:01;8.45;;;5.20;;
62633;SDS011;48704;50.534;6.442;2023-06-10T14:42:26;6.18;;;4.70;;
62633;SDS011;48704;50.534;6.442;2023-06-10T14:44:51;5.03;;;4.13;;
62633;SDS011;48704;50.534;6.442;2023-06-10T14:47:16;5.03;;;4.53;;
62633;SDS011;48704;50.534;6.442;2023-06-10T14:49:42;6.43;;;4.90;;
62633;SDS011;48704;50.534;6.442;2023-06-10T14:52:08;4.72;;;4.25;;
62633;SDS011;48704;50.534;6.442;2023-06-10T14:54:34;6.18;;;5.18;;
62633;SDS011;48704;50.534;6.442;2023-06-10T14:56:59;6.50;;;4.27;;
62633;SDS011;48704;50.534;6.442;2023-06-10T14:59:24;5.57;;;4.45;;
62633;SDS011;48704;50.534;6.442;2023-06-10T15:01:49;5.07;;;4.27;;
62633;SDS011;48704;50.534;6.442;2023-06-10T15:04:15;10.90;;;5.05;;
62633;SDS011;48704;50.534;6.442;2023-06-10T15:06:40;6.15;;;4.65;;
62633;SDS011;48704;50.534;6.442;2023-06-10T15:09:06;10.55;;;5.03;;
62633;SDS011;48704;50.534;6.442;2023-06-10T15:11:32;7.35;;;5.13;;
62633;SDS011;48704;50.534;6.442;2023-06-10T15:13:57;6.47;;;5.25;;